createdAt,value
2019-03-09T00:00:28.026Z,1.33
2019-03-09T00:05:44.455Z,1.57
2019-03-09T00:11:01.452Z,1.30
2019-03-09T00:16:18.106Z,1.70
2019-03-09T00:21:35.188Z,1.60
2019-03-09T00:27:10.904Z,1.50
2019-03-09T00:32:47.899Z,1.60
2019-03-09T00:38:05.011Z,1.80
2019-03-09T00:43:21.915Z,2.03
2019-03-09T00:48:38.810Z,2.27
2019-03-09T00:53:55.732Z,2.20
2019-03-09T00:59:12.154Z,3.30
2019-03-09T01:04:29.118Z,3.30
2019-03-09T01:09:45.858Z,3.53
2019-03-09T01:15:02.807Z,4.00
2019-03-09T01:20:19.499Z,4.23
2019-03-09T01:25:36.400Z,4.33
2019-03-09T01:30:53.318Z,4.87
2019-03-09T01:36:10.214Z,4.97
2019-03-09T01:41:27.235Z,6.20
2019-03-09T01:46:44.265Z,5.60
2019-03-09T01:52:01.061Z,6.13
2019-03-09T01:57:17.826Z,5.43
2019-03-09T02:02:35.162Z,5.23
2019-03-09T02:07:52.210Z,5.27
2019-03-09T02:13:09.054Z,6.50
2019-03-09T02:18:26.091Z,5.63
2019-03-09T02:23:43.071Z,5.77
2019-03-09T02:29:01.089Z,5.80
2019-03-09T02:34:18.327Z,6.77
2019-03-09T02:45:15.821Z,5.80
2019-03-09T02:50:33.119Z,6.00
2019-03-09T02:55:50.515Z,7.13
2019-03-09T03:01:26.085Z,5.50
2019-03-09T03:06:43.185Z,6.97
2019-03-09T03:12:00.298Z,7.47
2019-03-09T03:17:17.453Z,7.93
2019-03-09T03:22:34.319Z,7.40
2019-03-09T03:27:51.538Z,8.10
2019-03-09T03:33:08.573Z,6.50
2019-03-09T03:38:25.603Z,7.93
2019-03-09T03:43:42.393Z,5.37
2019-03-09T03:48:59.221Z,5.83
2019-03-09T03:54:15.940Z,8.13
2019-03-09T03:59:33.153Z,5.30
2019-03-09T04:04:49.935Z,5.80
2019-03-09T04:10:06.484Z,5.33
2019-03-09T04:15:23.519Z,5.43
2019-03-09T04:20:40.181Z,7.17
2019-03-09T04:25:57.187Z,5.33
2019-03-09T04:31:13.958Z,6.70
2019-03-09T04:36:30.963Z,6.50
2019-03-09T04:41:47.655Z,5.00
2019-03-09T04:47:04.764Z,5.47
2019-03-09T04:52:21.484Z,6.67
2019-03-09T04:57:38.272Z,5.53
2019-03-09T05:02:55.074Z,5.47
2019-03-09T05:08:12.099Z,5.60
2019-03-09T05:13:28.819Z,7.17
2019-03-09T05:18:45.708Z,5.40
2019-03-09T05:24:02.662Z,4.57
2019-03-09T05:29:19.125Z,9.73
2019-03-09T05:34:35.812Z,6.07
2019-03-09T05:39:52.832Z,7.17
2019-03-09T05:45:09.956Z,6.10
2019-03-09T05:50:26.764Z,7.57
2019-03-09T05:55:43.471Z,4.87
2019-03-09T06:01:00.452Z,5.83
2019-03-09T06:06:17.371Z,5.67
2019-03-09T06:11:33.735Z,7.85
2019-03-09T06:16:50.730Z,8.43
2019-03-09T06:22:07.413Z,8.67
2019-03-09T06:27:25.546Z,6.67
2019-03-09T06:32:42.045Z,6.97
2019-03-09T06:37:58.937Z,5.70
2019-03-09T06:43:16.114Z,5.93
2019-03-09T06:48:33.227Z,6.13
2019-03-09T06:53:49.697Z,5.07
2019-03-09T06:59:06.869Z,5.23
2019-03-09T07:04:23.837Z,5.43
2019-03-09T07:09:40.572Z,5.33
2019-03-09T07:14:57.610Z,6.77
2019-03-09T07:20:14.334Z,6.00
2019-03-09T07:25:31.241Z,6.75
2019-03-09T07:30:48.180Z,6.10
2019-03-09T07:36:05.029Z,6.50
2019-03-09T07:41:22.218Z,5.00
2019-03-09T07:46:39.356Z,4.63
2019-03-09T07:51:56.472Z,5.73
2019-03-09T07:57:13.441Z,5.43
2019-03-09T08:02:30.452Z,6.00
2019-03-09T08:07:47.481Z,5.97
2019-03-09T08:13:04.424Z,5.63
2019-03-09T08:18:21.016Z,5.90
2019-03-09T08:23:38.077Z,4.80
2019-03-09T08:28:55.367Z,5.67
2019-03-09T08:34:12.057Z,4.50
2019-03-09T08:39:29.078Z,8.20
2019-03-09T08:44:48.755Z,6.93
2019-03-09T08:50:05.228Z,5.83
2019-03-09T08:55:21.984Z,6.63
2019-03-09T09:00:38.713Z,6.33
2019-03-09T09:05:55.253Z,5.97
2019-03-09T09:11:11.894Z,8.07
2019-03-09T09:16:28.540Z,6.67
2019-03-09T09:21:45.358Z,5.73
2019-03-09T09:27:01.913Z,6.80
2019-03-09T09:32:18.728Z,8.43
2019-03-09T09:37:35.272Z,6.67
2019-03-09T09:42:52.222Z,5.50
2019-03-09T09:48:09.190Z,6.50
2019-03-09T09:53:26.004Z,4.97
2019-03-09T09:58:43.000Z,5.43
2019-03-09T10:04:00.006Z,5.83
2019-03-09T10:09:17.126Z,6.37
2019-03-09T10:14:34.066Z,5.13
2019-03-09T10:19:51.110Z,4.87
2019-03-09T10:25:08.070Z,6.00
2019-03-09T10:30:24.379Z,7.70
2019-03-09T10:35:40.758Z,4.63
2019-03-09T10:40:58.026Z,5.37
2019-03-09T10:46:15.276Z,5.17
2019-03-09T10:51:32.249Z,4.63
2019-03-09T10:56:49.272Z,5.33
2019-03-09T11:02:05.837Z,4.30
2019-03-09T11:07:22.355Z,5.03
2019-03-09T11:12:39.169Z,4.00
2019-03-09T11:17:55.909Z,5.37
2019-03-09T11:23:12.614Z,4.37
2019-03-09T11:28:29.165Z,5.13
2019-03-09T11:33:45.774Z,3.33
2019-03-09T11:39:02.966Z,3.97
2019-03-09T11:44:20.187Z,3.60
2019-03-09T11:49:36.978Z,4.03
2019-03-09T11:54:53.420Z,2.87
2019-03-09T12:00:10.403Z,3.27
2019-03-09T12:05:27.403Z,4.47
2019-03-09T12:10:44.164Z,2.60
2019-03-09T12:16:01.207Z,1.87
2019-03-09T12:21:18.377Z,2.63
2019-03-09T12:26:35.571Z,3.50
2019-03-09T12:31:51.966Z,2.50
2019-03-09T12:37:08.781Z,3.43
2019-03-09T12:42:25.560Z,2.57
2019-03-09T12:47:42.124Z,2.83
2019-03-09T12:52:58.703Z,2.83
2019-03-09T12:58:15.374Z,2.43
2019-03-09T13:03:32.709Z,2.43
2019-03-09T13:08:50.013Z,2.13
2019-03-09T13:14:07.074Z,2.10
2019-03-09T13:19:24.158Z,1.93
2019-03-09T13:24:41.019Z,2.30
2019-03-09T13:29:57.890Z,2.47
2019-03-09T13:35:15.052Z,2.27
2019-03-09T13:40:31.893Z,2.60
2019-03-09T13:45:48.751Z,2.47
2019-03-09T13:51:05.610Z,2.00
2019-03-09T13:56:22.412Z,2.07
2019-03-09T14:01:39.072Z,2.27
2019-03-09T14:06:56.116Z,1.60
2019-03-09T14:12:13.467Z,2.23
2019-03-09T14:17:30.746Z,2.30
2019-03-09T14:22:47.391Z,2.62
2019-03-09T14:28:03.924Z,2.93
2019-03-09T14:33:21.188Z,2.20
2019-03-09T14:38:38.025Z,2.30
2019-03-09T14:43:54.928Z,2.53
2019-03-09T14:49:12.122Z,2.00
2019-03-09T14:54:29.125Z,2.27
2019-03-09T14:59:45.829Z,3.53
2019-03-09T15:05:03.580Z,2.60
2019-03-09T15:10:20.820Z,2.37
2019-03-09T15:15:37.839Z,2.97
2019-03-09T15:20:55.002Z,2.17
2019-03-09T15:26:11.649Z,2.70
2019-03-09T15:31:28.771Z,3.27
2019-03-09T15:36:45.072Z,2.50
2019-03-09T15:42:02.008Z,3.30
2019-03-09T15:47:19.031Z,2.77
2019-03-09T15:52:35.788Z,2.57
2019-03-09T15:57:52.135Z,2.60
2019-03-09T16:03:09.093Z,1.90
2019-03-09T16:08:25.602Z,2.53
2019-03-09T16:13:42.135Z,2.37
2019-03-09T16:18:59.267Z,3.23
2019-03-09T16:24:16.418Z,2.47
2019-03-09T16:29:33.136Z,2.73
2019-03-09T16:34:50.286Z,3.50
2019-03-09T16:40:06.895Z,2.47
2019-03-09T16:45:23.779Z,3.50
2019-03-09T16:50:40.758Z,4.87
2019-03-09T16:55:57.584Z,5.03
2019-03-09T17:01:14.897Z,5.93
2019-03-09T17:06:31.470Z,4.70
2019-03-09T17:11:48.452Z,6.37
2019-03-09T17:17:05.300Z,3.93
2019-03-09T17:22:32.434Z,5.30
2019-03-09T17:27:41.468Z,3.63
2019-03-09T17:32:58.443Z,4.80
2019-03-09T17:38:15.515Z,5.90
2019-03-09T17:43:32.314Z,6.65
2019-03-09T17:48:49.328Z,6.20
2019-03-09T17:54:06.037Z,5.33
2019-03-09T17:59:22.786Z,5.72
2019-03-09T18:04:39.582Z,7.43
2019-03-09T18:09:56.456Z,5.23
2019-03-09T18:15:13.294Z,5.00
2019-03-09T18:20:30.429Z,6.50
2019-03-09T18:25:47.166Z,6.10
2019-03-09T18:31:04.009Z,6.10
2019-03-09T18:36:20.484Z,5.93
2019-03-09T18:41:37.130Z,4.20
2019-03-09T18:46:54.298Z,4.80
2019-03-09T18:52:11.143Z,5.33
2019-03-09T18:57:27.864Z,5.63
2019-03-09T19:02:45.015Z,4.97
2019-03-09T19:08:01.438Z,4.73
2019-03-09T19:13:19.033Z,5.35
2019-03-09T19:18:36.195Z,5.57
2019-03-09T19:23:53.224Z,6.40
2019-03-09T19:29:10.321Z,6.33
2019-03-09T19:34:27.281Z,6.03
2019-03-09T19:39:45.043Z,4.60
2019-03-09T19:45:01.654Z,6.03
2019-03-09T19:50:18.623Z,6.80
2019-03-09T19:55:35.493Z,5.17
2019-03-09T20:00:52.269Z,5.07
2019-03-09T20:06:09.268Z,5.40
2019-03-09T20:11:26.027Z,4.93
2019-03-09T20:16:43.154Z,5.47
2019-03-09T20:22:00.233Z,4.07
2019-03-09T20:27:17.131Z,5.87
2019-03-09T20:32:36.414Z,5.53
2019-03-09T20:37:52.786Z,6.58
2019-03-09T20:43:09.568Z,8.13
2019-03-09T20:48:25.909Z,6.40
2019-03-09T20:53:42.665Z,5.07
2019-03-09T20:58:59.655Z,5.77
2019-03-09T21:04:16.845Z,6.43
2019-03-09T21:09:33.531Z,5.40
2019-03-09T21:14:50.598Z,5.70
2019-03-09T21:20:07.406Z,4.77
2019-03-09T21:25:24.512Z,5.10
2019-03-09T21:30:41.530Z,5.53
2019-03-09T21:35:58.720Z,5.43
2019-03-09T21:41:15.525Z,5.50
2019-03-09T21:46:32.207Z,5.77
2019-03-09T21:51:49.269Z,4.60
2019-03-09T21:57:06.508Z,5.57
2019-03-09T22:02:23.698Z,5.43
2019-03-09T22:07:40.931Z,5.63
2019-03-09T22:12:57.897Z,5.50
2019-03-09T22:18:14.529Z,6.53
2019-03-09T22:23:31.586Z,4.80
2019-03-09T22:28:48.219Z,5.43
2019-03-09T22:34:04.861Z,5.47
2019-03-09T22:39:22.185Z,6.03
2019-03-09T22:44:39.134Z,5.27
2019-03-09T22:49:56.082Z,5.20
2019-03-09T22:55:13.119Z,5.23
2019-03-09T23:00:30.466Z,7.90
2019-03-09T23:05:47.065Z,5.40
2019-03-09T23:11:03.785Z,5.63
2019-03-09T23:16:20.664Z,7.30
2019-03-09T23:21:37.587Z,5.47
2019-03-09T23:26:54.993Z,5.57
2019-03-09T23:32:11.711Z,4.53
2019-03-09T23:37:28.426Z,5.10
2019-03-09T23:42:45.720Z,6.90
2019-03-09T23:48:02.802Z,6.90
2019-03-09T23:53:19.730Z,4.60
2019-03-09T23:58:37.120Z,5.83
